This is the latest recevied weather packets stored in our database for station/object VK3AGD-9. If no packets are shown the sender has not sent any weather packets the latest 10 day(s).
| Time | Temp. | Humidity | Pressure | Rain* | Wind** | Luminosity | Snow |
|---|---|---|---|---|---|---|---|
| 1787716901 | 12.78° C | 78% | - | 0 mm | - | - | - |
| 1787715941 | 12.22° C | 79% | - | 0 mm | - | - | - |
| 1787715077 | 12.22° C | 78% | - | 0 mm | - | - | - |
| 1787714214 | 13.89° C | 73% | - | 0 mm | - | - | - |
| 1787713253 | 12.78° C | 80% | - | 0 mm | - | - | - |
| 1787712389 | 12.78° C | 79% | - | 0 mm | - | - | - |
| 1787711429 | 12.22° C | 82% | - | 0 mm | - | - | - |
| 1787710566 | 12.22° C | 80% | - | 0 mm | - | - | - |
| 1787709701 | 12.22° C | 85% | - | 0 mm | - | - | - |
| 1787708740 | 11.67° C | 87% | - | 0 mm | - | - | - |
| 1787707876 | 12.22° C | 86% | - | 0 mm | - | - | - |
| 1787707014 | 11.67° C | 88% | - | 0 mm | - | - | - |
| 1787706053 | 12.22° C | 88% | - | 0 mm | - | - | - |
| 1787705189 | 11.67° C | 91% | - | 0 mm | - | - | - |
| 1787704229 | 11.67° C | 92% | - | 0 mm | - | - | - |
| 1787703365 | 11.11° C | 96% | - | 0 mm | - | - | - |
| 1787702500 | 10.56° C | 96% | - | 0 mm | - | - | - |
| 1787701541 | 11.11° C | 98% | - | 0 mm | - | - | - |
| 1787700678 | 10.56° C | 99% | - | 0 mm | - | - | - |
| 1787699813 | 10° C | 99% | - | 0 mm | - | - | - |
| 1787698853 | 10° C | 99% | - | 0 mm | - | - | - |
| 1787697989 | 9.44° C | 99% | - | 0 mm | - | - | - |
| 1787697029 | 9.44° C | 99% | - | 0 mm | - | - | - |
| 1787696165 | 9.44° C | 99% | - | 0 mm | - | - | - |
| 1787695300 | 9.44° C | 99% | - | 0 mm | - | - | - |
* Rain latest hour (hover to see other rain measurements)
** Current wind speed in m/s (hover to see current wind gust speed)